sensor_id;sensor_type;location;lat;lon;timestamp;temperature;humidity
29363;DHT22;16349;53.672;10.014;2022-07-29T00:00:37;13.50;99.90
29363;DHT22;16349;53.672;10.014;2022-07-29T00:03:03;13.50;99.90
29363;DHT22;16349;53.672;10.014;2022-07-29T00:05:31;13.50;99.90
29363;DHT22;16349;53.672;10.014;2022-07-29T00:07:57;13.40;99.90
29363;DHT22;16349;53.672;10.014;2022-07-29T00:10:26;13.40;99.90
29363;DHT22;16349;53.672;10.014;2022-07-29T00:12:53;13.40;99.90
29363;DHT22;16349;53.672;10.014;2022-07-29T00:15:20;13.30;99.90
29363;DHT22;16349;53.672;10.014;2022-07-29T00:17:47;13.30;99.90
29363;DHT22;16349;53.672;10.014;2022-07-29T00:20:13;13.30;99.90
29363;DHT22;16349;53.672;10.014;2022-07-29T00:22:40;13.30;99.90
29363;DHT22;16349;53.672;10.014;2022-07-29T00:25:08;13.20;99.90
29363;DHT22;16349;53.672;10.014;2022-07-29T00:27:36;13.20;99.90
29363;DHT22;16349;53.672;10.014;2022-07-29T00:30:04;13.20;99.90
29363;DHT22;16349;53.672;10.014;2022-07-29T00:32:31;13.10;99.90
29363;DHT22;16349;53.672;10.014;2022-07-29T00:34:58;13.10;99.90
29363;DHT22;16349;53.672;10.014;2022-07-29T00:37:43;13.10;99.90
29363;DHT22;16349;53.672;10.014;2022-07-29T00:40:10;13.10;99.90
29363;DHT22;16349;53.672;10.014;2022-07-29T00:42:46;13.10;99.90
29363;DHT22;16349;53.672;10.014;2022-07-29T00:45:14;13.10;99.90
29363;DHT22;16349;53.672;10.014;2022-07-29T00:47:41;13.00;99.90
29363;DHT22;16349;53.672;10.014;2022-07-29T00:50:10;13.00;99.90
29363;DHT22;16349;53.672;10.014;2022-07-29T00:52:38;13.00;99.90
29363;DHT22;16349;53.672;10.014;2022-07-29T00:55:07;13.00;99.90
29363;DHT22;16349;53.672;10.014;2022-07-29T00:57:35;12.90;99.90
29363;DHT22;16349;53.672;10.014;2022-07-29T01:00:05;12.90;99.90
29363;DHT22;16349;53.672;10.014;2022-07-29T01:02:33;12.90;99.90
29363;DHT22;16349;53.672;10.014;2022-07-29T01:05:00;12.90;99.90
29363;DHT22;16349;53.672;10.014;2022-07-29T01:07:28;12.90;99.90
29363;DHT22;16349;53.672;10.014;2022-07-29T01:09:56;12.80;99.90
29363;DHT22;16349;53.672;10.014;2022-07-29T01:12:25;12.80;99.90
29363;DHT22;16349;53.672;10.014;2022-07-29T01:14:54;12.80;99.90
29363;DHT22;16349;53.672;10.014;2022-07-29T01:17:27;12.80;99.90
29363;DHT22;16349;53.672;10.014;2022-07-29T01:19:59;12.80;99.90
29363;DHT22;16349;53.672;10.014;2022-07-29T01:22:35;12.70;99.90
29363;DHT22;16349;53.672;10.014;2022-07-29T01:25:20;12.70;99.90
29363;DHT22;16349;53.672;10.014;2022-07-29T01:28:03;12.70;99.90
29363;DHT22;16349;53.672;10.014;2022-07-29T01:30:38;12.70;99.90
29363;DHT22;16349;53.672;10.014;2022-07-29T01:33:07;12.70;99.90
29363;DHT22;16349;53.672;10.014;2022-07-29T01:35:39;12.70;99.90
29363;DHT22;16349;53.672;10.014;2022-07-29T01:38:11;12.70;99.90
29363;DHT22;16349;53.672;10.014;2022-07-29T01:40:43;12.70;99.90
29363;DHT22;16349;53.672;10.014;2022-07-29T01:43:15;12.70;99.90
29363;DHT22;16349;53.672;10.014;2022-07-29T01:45:48;12.70;99.90
29363;DHT22;16349;53.672;10.014;2022-07-29T01:48:19;12.70;99.90
29363;DHT22;16349;53.672;10.014;2022-07-29T01:50:50;12.70;99.90
29363;DHT22;16349;53.672;10.014;2022-07-29T01:53:28;12.70;99.90
29363;DHT22;16349;53.672;10.014;2022-07-29T01:55:57;12.70;99.90
29363;DHT22;16349;53.672;10.014;2022-07-29T01:58:26;12.60;99.90
29363;DHT22;16349;53.672;10.014;2022-07-29T02:00:56;12.60;99.90
29363;DHT22;16349;53.672;10.014;2022-07-29T02:03:24;12.60;99.90
29363;DHT22;16349;53.672;10.014;2022-07-29T02:05:53;12.60;99.90
29363;DHT22;16349;53.672;10.014;2022-07-29T02:08:21;12.60;99.90
29363;DHT22;16349;53.672;10.014;2022-07-29T02:10:48;12.60;99.90
29363;DHT22;16349;53.672;10.014;2022-07-29T02:13:17;12.60;99.90
29363;DHT22;16349;53.672;10.014;2022-07-29T02:15:45;12.60;99.90
29363;DHT22;16349;53.672;10.014;2022-07-29T02:18:17;12.60;99.90
29363;DHT22;16349;53.672;10.014;2022-07-29T02:20:47;12.60;99.90
29363;DHT22;16349;53.672;10.014;2022-07-29T02:23:19;12.60;99.90
29363;DHT22;16349;53.672;10.014;2022-07-29T02:25:48;12.60;99.90
29363;DHT22;16349;53.672;10.014;2022-07-29T02:28:16;12.60;99.90
29363;DHT22;16349;53.672;10.014;2022-07-29T02:30:45;12.60;99.90
29363;DHT22;16349;53.672;10.014;2022-07-29T02:33:15;12.60;99.90
29363;DHT22;16349;53.672;10.014;2022-07-29T02:35:44;12.60;99.90
29363;DHT22;16349;53.672;10.014;2022-07-29T02:38:14;12.60;99.90
29363;DHT22;16349;53.672;10.014;2022-07-29T02:41:00;12.60;99.90
29363;DHT22;16349;53.672;10.014;2022-07-29T02:43:29;12.60;99.90
29363;DHT22;16349;53.672;10.014;2022-07-29T02:45:58;12.70;99.90
29363;DHT22;16349;53.672;10.014;2022-07-29T02:48:31;12.70;99.90
29363;DHT22;16349;53.672;10.014;2022-07-29T02:51:05;12.70;99.90
29363;DHT22;16349;53.672;10.014;2022-07-29T02:53:33;12.60;99.90
29363;DHT22;16349;53.672;10.014;2022-07-29T02:56:06;12.70;99.90
29363;DHT22;16349;53.672;10.014;2022-07-29T02:58:39;12.70;99.90
29363;DHT22;16349;53.672;10.014;2022-07-29T03:01:11;12.70;99.90
29363;DHT22;16349;53.672;10.014;2022-07-29T03:03:42;12.70;99.90
29363;DHT22;16349;53.672;10.014;2022-07-29T03:06:12;12.70;99.90
29363;DHT22;16349;53.672;10.014;2022-07-29T03:08:40;12.70;99.90
29363;DHT22;16349;53.672;10.014;2022-07-29T03:11:08;12.70;99.90
29363;DHT22;16349;53.672;10.014;2022-07-29T03:13:36;12.80;99.90
29363;DHT22;16349;53.672;10.014;2022-07-29T03:16:04;12.80;99.90
29363;DHT22;16349;53.672;10.014;2022-07-29T03:18:31;12.80;99.90
29363;DHT22;16349;53.672;10.014;2022-07-29T03:21:00;12.80;99.90
29363;DHT22;16349;53.672;10.014;2022-07-29T03:23:27;12.80;99.90
29363;DHT22;16349;53.672;10.014;2022-07-29T03:25:53;12.80;99.90
29363;DHT22;16349;53.672;10.014;2022-07-29T03:28:21;12.80;99.90
29363;DHT22;16349;53.672;10.014;2022-07-29T03:30:48;12.80;99.90
29363;DHT22;16349;53.672;10.014;2022-07-29T03:33:16;12.80;99.90
29363;DHT22;16349;53.672;10.014;2022-07-29T03:35:43;12.80;99.90
29363;DHT22;16349;53.672;10.014;2022-07-29T03:38:11;12.80;99.90
29363;DHT22;16349;53.672;10.014;2022-07-29T03:40:42;12.80;99.90
29363;DHT22;16349;53.672;10.014;2022-07-29T03:43:11;12.80;99.90
29363;DHT22;16349;53.672;10.014;2022-07-29T03:45:41;12.80;99.90
29363;DHT22;16349;53.672;10.014;2022-07-29T03:48:13;12.80;99.90
29363;DHT22;16349;53.672;10.014;2022-07-29T03:50:41;12.80;99.90
29363;DHT22;16349;53.672;10.014;2022-07-29T03:53:08;12.90;99.90
29363;DHT22;16349;53.672;10.014;2022-07-29T03:55:41;12.80;99.90
29363;DHT22;16349;53.672;10.014;2022-07-29T03:58:09;12.80;99.90
29363;DHT22;16349;53.672;10.014;2022-07-29T04:00:37;12.80;99.90
29363;DHT22;16349;53.672;10.014;2022-07-29T04:03:05;12.90;99.90
29363;DHT22;16349;53.672;10.014;2022-07-29T04:05:32;12.80;99.90
29363;DHT22;16349;53.672;10.014;2022-07-29T04:07:59;12.90;99.90
29363;DHT22;16349;53.672;10.014;2022-07-29T04:10:25;12.80;99.90
29363;DHT22;16349;53.672;10.014;2022-07-29T04:12:54;12.80;99.90
29363;DHT22;16349;53.672;10.014;2022-07-29T04:15:20;12.90;99.90
29363;DHT22;16349;53.672;10.014;2022-07-29T04:17:47;12.90;99.90
29363;DHT22;16349;53.672;10.014;2022-07-29T04:20:14;12.90;99.90
29363;DHT22;16349;53.672;10.014;2022-07-29T04:22:42;12.90;99.90
29363;DHT22;16349;53.672;10.014;2022-07-29T04:25:09;12.90;99.90
29363;DHT22;16349;53.672;10.014;2022-07-29T04:27:35;12.90;99.90
29363;DHT22;16349;53.672;10.014;2022-07-29T04:30:24;13.00;99.90
29363;DHT22;16349;53.672;10.014;2022-07-29T04:33:13;13.00;99.90
29363;DHT22;16349;53.672;10.014;2022-07-29T04:35:40;13.00;99.90
29363;DHT22;16349;53.672;10.014;2022-07-29T04:38:07;13.00;99.90
29363;DHT22;16349;53.672;10.014;2022-07-29T04:40:34;13.00;99.90
29363;DHT22;16349;53.672;10.014;2022-07-29T04:43:01;13.10;99.90
29363;DHT22;16349;53.672;10.014;2022-07-29T04:45:30;13.10;99.90
29363;DHT22;16349;53.672;10.014;2022-07-29T04:47:56;13.10;99.90
29363;DHT22;16349;53.672;10.014;2022-07-29T04:50:23;13.10;99.90
29363;DHT22;16349;53.672;10.014;2022-07-29T04:52:50;13.10;99.90
29363;DHT22;16349;53.672;10.014;2022-07-29T04:55:17;13.10;99.90
29363;DHT22;16349;53.672;10.014;2022-07-29T04:57:44;13.10;99.90
29363;DHT22;16349;53.672;10.014;2022-07-29T05:00:11;13.10;99.90
29363;DHT22;16349;53.672;10.014;2022-07-29T05:02:40;13.10;99.90
29363;DHT22;16349;53.672;10.014;2022-07-29T05:05:07;13.10;99.90
29363;DHT22;16349;53.672;10.014;2022-07-29T05:07:34;13.10;99.90
29363;DHT22;16349;53.672;10.014;2022-07-29T05:10:02;13.10;99.90
29363;DHT22;16349;53.672;10.014;2022-07-29T05:12:28;13.20;99.90
29363;DHT22;16349;53.672;10.014;2022-07-29T05:14:55;13.20;99.90
29363;DHT22;16349;53.672;10.014;2022-07-29T05:17:22;13.20;99.90
29363;DHT22;16349;53.672;10.014;2022-07-29T05:19:50;13.20;99.90
29363;DHT22;16349;53.672;10.014;2022-07-29T05:22:18;13.20;99.90
29363;DHT22;16349;53.672;10.014;2022-07-29T05:24:45;13.20;99.90
29363;DHT22;16349;53.672;10.014;2022-07-29T05:27:12;13.20;99.90
29363;DHT22;16349;53.672;10.014;2022-07-29T05:29:39;13.30;99.90
29363;DHT22;16349;53.672;10.014;2022-07-29T05:32:05;13.30;99.90
29363;DHT22;16349;53.672;10.014;2022-07-29T05:34:33;13.30;99.90
29363;DHT22;16349;53.672;10.014;2022-07-29T05:37:01;13.40;99.90
29363;DHT22;16349;53.672;10.014;2022-07-29T05:39:27;13.40;99.90
29363;DHT22;16349;53.672;10.014;2022-07-29T05:41:54;13.50;99.90
29363;DHT22;16349;53.672;10.014;2022-07-29T05:44:21;13.50;99.90
29363;DHT22;16349;53.672;10.014;2022-07-29T05:46:48;13.60;99.90
29363;DHT22;16349;53.672;10.014;2022-07-29T05:49:15;13.70;99.90
29363;DHT22;16349;53.672;10.014;2022-07-29T05:51:42;13.70;99.90
29363;DHT22;16349;53.672;10.014;2022-07-29T05:54:10;13.80;99.90
29363;DHT22;16349;53.672;10.014;2022-07-29T05:56:37;13.80;99.90
29363;DHT22;16349;53.672;10.014;2022-07-29T05:59:03;13.90;99.90
29363;DHT22;16349;53.672;10.014;2022-07-29T06:01:30;14.00;99.90
29363;DHT22;16349;53.672;10.014;2022-07-29T06:03:57;14.10;99.90
29363;DHT22;16349;53.672;10.014;2022-07-29T06:06:24;14.20;99.90
29363;DHT22;16349;53.672;10.014;2022-07-29T06:08:51;14.20;99.90
29363;DHT22;16349;53.672;10.014;2022-07-29T06:11:19;14.30;99.90
29363;DHT22;16349;53.672;10.014;2022-07-29T06:13:45;14.40;99.90
29363;DHT22;16349;53.672;10.014;2022-07-29T06:16:13;14.40;99.90
29363;DHT22;16349;53.672;10.014;2022-07-29T06:18:39;14.50;99.90
29363;DHT22;16349;53.672;10.014;2022-07-29T06:21:08;14.60;99.90
29363;DHT22;16349;53.672;10.014;2022-07-29T06:23:36;14.80;99.90
29363;DHT22;16349;53.672;10.014;2022-07-29T06:26:04;14.90;99.90
29363;DHT22;16349;53.672;10.014;2022-07-29T06:28:32;15.00;99.90
29363;DHT22;16349;53.672;10.014;2022-07-29T06:30:59;15.10;99.90
29363;DHT22;16349;53.672;10.014;2022-07-29T06:33:26;15.20;99.90
29363;DHT22;16349;53.672;10.014;2022-07-29T06:35:53;15.30;99.90
29363;DHT22;16349;53.672;10.014;2022-07-29T06:38:20;15.40;99.90
29363;DHT22;16349;53.672;10.014;2022-07-29T06:40:47;15.50;99.90
29363;DHT22;16349;53.672;10.014;2022-07-29T06:43:27;15.60;99.90
29363;DHT22;16349;53.672;10.014;2022-07-29T06:46:00;15.60;99.90
29363;DHT22;16349;53.672;10.014;2022-07-29T06:48:27;15.70;99.90
29363;DHT22;16349;53.672;10.014;2022-07-29T06:50:55;15.80;99.90
29363;DHT22;16349;53.672;10.014;2022-07-29T06:53:22;16.00;99.90
29363;DHT22;16349;53.672;10.014;2022-07-29T06:55:49;16.00;99.90
29363;DHT22;16349;53.672;10.014;2022-07-29T06:58:16;16.10;99.90
29363;DHT22;16349;53.672;10.014;2022-07-29T07:00:54;16.10;99.90
29363;DHT22;16349;53.672;10.014;2022-07-29T07:03:22;16.20;99.90
29363;DHT22;16349;53.672;10.014;2022-07-29T07:05:51;16.30;99.90
29363;DHT22;16349;53.672;10.014;2022-07-29T07:08:19;16.30;99.90
29363;DHT22;16349;53.672;10.014;2022-07-29T07:10:46;16.40;99.90
29363;DHT22;16349;53.672;10.014;2022-07-29T07:13:13;16.40;99.90
29363;DHT22;16349;53.672;10.014;2022-07-29T07:15:43;16.60;99.90
29363;DHT22;16349;53.672;10.014;2022-07-29T07:18:10;16.70;99.90
29363;DHT22;16349;53.672;10.014;2022-07-29T07:20:38;16.90;99.90
29363;DHT22;16349;53.672;10.014;2022-07-29T07:23:05;17.00;99.90
29363;DHT22;16349;53.672;10.014;2022-07-29T07:25:32;17.10;99.90
29363;DHT22;16349;53.672;10.014;2022-07-29T07:27:59;17.20;99.90
29363;DHT22;16349;53.672;10.014;2022-07-29T07:30:27;17.30;99.90
29363;DHT22;16349;53.672;10.014;2022-07-29T07:32:54;17.40;99.90
29363;DHT22;16349;53.672;10.014;2022-07-29T07:35:21;17.60;99.90
29363;DHT22;16349;53.672;10.014;2022-07-29T07:37:50;17.60;99.90
29363;DHT22;16349;53.672;10.014;2022-07-29T07:40:16;17.80;99.90
29363;DHT22;16349;53.672;10.014;2022-07-29T07:42:43;17.90;99.90
29363;DHT22;16349;53.672;10.014;2022-07-29T07:45:11;18.00;99.90
29363;DHT22;16349;53.672;10.014;2022-07-29T07:47:38;18.10;99.90
29363;DHT22;16349;53.672;10.014;2022-07-29T07:50:08;18.30;99.90
29363;DHT22;16349;53.672;10.014;2022-07-29T07:52:35;18.40;99.90
29363;DHT22;16349;53.672;10.014;2022-07-29T07:55:13;18.50;99.90
29363;DHT22;16349;53.672;10.014;2022-07-29T07:57:40;18.60;99.90
29363;DHT22;16349;53.672;10.014;2022-07-29T08:00:08;18.70;99.90
29363;DHT22;16349;53.672;10.014;2022-07-29T08:02:37;18.70;99.90
29363;DHT22;16349;53.672;10.014;2022-07-29T08:05:06;18.70;99.90
29363;DHT22;16349;53.672;10.014;2022-07-29T08:07:33;18.70;99.90
29363;DHT22;16349;53.672;10.014;2022-07-29T08:10:00;18.70;99.90
29363;DHT22;16349;53.672;10.014;2022-07-29T08:12:29;18.80;99.90
29363;DHT22;16349;53.672;10.014;2022-07-29T08:14:55;18.90;99.90
29363;DHT22;16349;53.672;10.014;2022-07-29T08:17:22;19.00;99.90
29363;DHT22;16349;53.672;10.014;2022-07-29T08:19:49;19.00;99.90
29363;DHT22;16349;53.672;10.014;2022-07-29T08:22:16;19.10;99.90
29363;DHT22;16349;53.672;10.014;2022-07-29T08:24:43;19.20;99.90
29363;DHT22;16349;53.672;10.014;2022-07-29T08:27:11;19.20;99.90
29363;DHT22;16349;53.672;10.014;2022-07-29T08:29:40;19.20;99.90
29363;DHT22;16349;53.672;10.014;2022-07-29T08:32:07;19.30;99.90
29363;DHT22;16349;53.672;10.014;2022-07-29T08:34:34;19.30;99.90
29363;DHT22;16349;53.672;10.014;2022-07-29T08:37:01;19.40;99.90
29363;DHT22;16349;53.672;10.014;2022-07-29T08:39:27;19.40;99.90
29363;DHT22;16349;53.672;10.014;2022-07-29T08:41:54;19.70;99.90
29363;DHT22;16349;53.672;10.014;2022-07-29T08:44:21;19.80;99.90
29363;DHT22;16349;53.672;10.014;2022-07-29T08:46:49;20.00;99.90
29363;DHT22;16349;53.672;10.014;2022-07-29T08:49:16;20.10;99.90
29363;DHT22;16349;53.672;10.014;2022-07-29T08:51:44;20.10;99.90
29363;DHT22;16349;53.672;10.014;2022-07-29T08:54:16;20.10;99.90
29363;DHT22;16349;53.672;10.014;2022-07-29T08:56:44;20.20;99.90
29363;DHT22;16349;53.672;10.014;2022-07-29T08:59:11;20.20;99.90
29363;DHT22;16349;53.672;10.014;2022-07-29T09:01:39;20.40;99.90
29363;DHT22;16349;53.672;10.014;2022-07-29T09:04:11;20.50;99.90
29363;DHT22;16349;53.672;10.014;2022-07-29T09:06:45;20.60;99.90
29363;DHT22;16349;53.672;10.014;2022-07-29T09:09:13;20.60;99.90
29363;DHT22;16349;53.672;10.014;2022-07-29T09:11:40;20.70;99.90
29363;DHT22;16349;53.672;10.014;2022-07-29T09:14:08;20.90;99.90
29363;DHT22;16349;53.672;10.014;2022-07-29T09:16:45;21.00;99.90
29363;DHT22;16349;53.672;10.014;2022-07-29T09:19:21;21.10;99.90
29363;DHT22;16349;53.672;10.014;2022-07-29T09:21:49;21.10;99.90
29363;DHT22;16349;53.672;10.014;2022-07-29T09:24:26;21.30;99.90
29363;DHT22;16349;53.672;10.014;2022-07-29T09:26:53;21.30;99.90
29363;DHT22;16349;53.672;10.014;2022-07-29T09:29:23;21.30;99.80
29363;DHT22;16349;53.672;10.014;2022-07-29T09:31:51;21.40;99.50
29363;DHT22;16349;53.672;10.014;2022-07-29T09:34:24;21.40;99.30
29363;DHT22;16349;53.672;10.014;2022-07-29T09:36:53;21.60;99.00
29363;DHT22;16349;53.672;10.014;2022-07-29T09:39:31;21.70;98.70
29363;DHT22;16349;53.672;10.014;2022-07-29T09:41:59;21.90;97.50
29363;DHT22;16349;53.672;10.014;2022-07-29T09:44:27;22.10;97.00
29363;DHT22;16349;53.672;10.014;2022-07-29T09:47:07;22.10;96.00
29363;DHT22;16349;53.672;10.014;2022-07-29T09:49:36;22.10;95.80
29363;DHT22;16349;53.672;10.014;2022-07-29T09:52:16;22.10;95.80
29363;DHT22;16349;53.672;10.014;2022-07-29T09:54:43;22.00;99.90
29363;DHT22;16349;53.672;10.014;2022-07-29T09:57:22;22.00;99.90
29363;DHT22;16349;53.672;10.014;2022-07-29T09:59:56;22.00;99.90
29363;DHT22;16349;53.672;10.014;2022-07-29T10:02:28;22.10;99.90
29363;DHT22;16349;53.672;10.014;2022-07-29T10:04:57;22.20;95.20
29363;DHT22;16349;53.672;10.014;2022-07-29T10:07:24;22.30;95.30
29363;DHT22;16349;53.672;10.014;2022-07-29T10:09:53;22.40;95.00
29363;DHT22;16349;53.672;10.014;2022-07-29T10:12:22;22.40;94.70
29363;DHT22;16349;53.672;10.014;2022-07-29T10:14:50;22.50;94.90
29363;DHT22;16349;53.672;10.014;2022-07-29T10:17:17;22.60;94.00
29363;DHT22;16349;53.672;10.014;2022-07-29T10:19:45;22.60;94.00
29363;DHT22;16349;53.672;10.014;2022-07-29T10:22:13;22.70;93.50
29363;DHT22;16349;53.672;10.014;2022-07-29T10:24:40;22.80;93.30
29363;DHT22;16349;53.672;10.014;2022-07-29T10:27:08;22.90;93.30
29363;DHT22;16349;53.672;10.014;2022-07-29T10:29:35;23.10;92.90
29363;DHT22;16349;53.672;10.014;2022-07-29T10:32:13;23.10;92.60
29363;DHT22;16349;53.672;10.014;2022-07-29T10:35:04;23.10;92.30
29363;DHT22;16349;53.672;10.014;2022-07-29T10:37:46;23.20;92.00
29363;DHT22;16349;53.672;10.014;2022-07-29T10:40:30;23.30;91.70
29363;DHT22;16349;53.672;10.014;2022-07-29T10:43:20;23.20;89.80
29363;DHT22;16349;53.672;10.014;2022-07-29T10:45:49;23.30;89.50
29363;DHT22;16349;53.672;10.014;2022-07-29T10:48:22;23.30;90.00
29363;DHT22;16349;53.672;10.014;2022-07-29T10:50:53;23.30;89.50
29363;DHT22;16349;53.672;10.014;2022-07-29T10:53:22;23.30;87.60
29363;DHT22;16349;53.672;10.014;2022-07-29T10:55:51;23.30;89.90
29363;DHT22;16349;53.672;10.014;2022-07-29T10:58:19;23.30;90.00
29363;DHT22;16349;53.672;10.014;2022-07-29T11:00:48;23.20;89.90
29363;DHT22;16349;53.672;10.014;2022-07-29T11:03:46;23.20;89.30
29363;DHT22;16349;53.672;10.014;2022-07-29T11:06:16;23.20;88.20
29363;DHT22;16349;53.672;10.014;2022-07-29T11:08:44;23.10;89.60
29363;DHT22;16349;53.672;10.014;2022-07-29T11:11:34;23.10;90.10
29363;DHT22;16349;53.672;10.014;2022-07-29T11:14:04;23.20;87.80
29363;DHT22;16349;53.672;10.014;2022-07-29T11:17:02;23.20;88.10
29363;DHT22;16349;53.672;10.014;2022-07-29T11:19:30;23.20;88.00
29363;DHT22;16349;53.672;10.014;2022-07-29T11:21:57;23.30;88.60
29363;DHT22;16349;53.672;10.014;2022-07-29T11:24:27;23.30;86.90
29363;DHT22;16349;53.672;10.014;2022-07-29T11:27:10;23.40;86.60
29363;DHT22;16349;53.672;10.014;2022-07-29T11:29:40;23.50;86.80
29363;DHT22;16349;53.672;10.014;2022-07-29T11:32:09;23.50;86.70
29363;DHT22;16349;53.672;10.014;2022-07-29T11:34:36;23.50;88.00
29363;DHT22;16349;53.672;10.014;2022-07-29T11:37:20;23.50;87.00
29363;DHT22;16349;53.672;10.014;2022-07-29T11:40:09;23.60;85.60
29363;DHT22;16349;53.672;10.014;2022-07-29T11:42:45;23.70;85.60
29363;DHT22;16349;53.672;10.014;2022-07-29T11:45:14;24.00;86.20
29363;DHT22;16349;53.672;10.014;2022-07-29T11:47:48;24.10;84.80
29363;DHT22;16349;53.672;10.014;2022-07-29T11:50:18;24.30;84.00
29363;DHT22;16349;53.672;10.014;2022-07-29T11:52:52;24.40;84.10
29363;DHT22;16349;53.672;10.014;2022-07-29T11:55:23;24.50;84.40
29363;DHT22;16349;53.672;10.014;2022-07-29T11:57:51;24.60;84.30
29363;DHT22;16349;53.672;10.014;2022-07-29T12:00:24;24.70;82.90
29363;DHT22;16349;53.672;10.014;2022-07-29T12:02:51;24.90;81.30
29363;DHT22;16349;53.672;10.014;2022-07-29T12:05:18;25.00;78.90
29363;DHT22;16349;53.672;10.014;2022-07-29T12:07:47;25.20;76.50
29363;DHT22;16349;53.672;10.014;2022-07-29T12:10:15;25.10;74.00
29363;DHT22;16349;53.672;10.014;2022-07-29T12:12:50;25.00;73.30
29363;DHT22;16349;53.672;10.014;2022-07-29T12:15:19;25.10;72.20
29363;DHT22;16349;53.672;10.014;2022-07-29T12:17:47;24.90;72.80
29363;DHT22;16349;53.672;10.014;2022-07-29T12:20:23;25.00;74.30
29363;DHT22;16349;53.672;10.014;2022-07-29T12:22:51;24.90;74.70
29363;DHT22;16349;53.672;10.014;2022-07-29T12:25:19;24.90;72.80
29363;DHT22;16349;53.672;10.014;2022-07-29T12:27:58;24.90;72.20
29363;DHT22;16349;53.672;10.014;2022-07-29T12:30:35;24.90;72.00
29363;DHT22;16349;53.672;10.014;2022-07-29T12:33:11;24.90;70.80
29363;DHT22;16349;53.672;10.014;2022-07-29T12:35:39;24.90;72.10
29363;DHT22;16349;53.672;10.014;2022-07-29T12:38:06;24.90;73.20
29363;DHT22;16349;53.672;10.014;2022-07-29T12:40:33;25.10;71.10
29363;DHT22;16349;53.672;10.014;2022-07-29T12:43:09;25.30;70.20
29363;DHT22;16349;53.672;10.014;2022-07-29T12:45:36;25.50;70.90
29363;DHT22;16349;53.672;10.014;2022-07-29T12:48:03;25.60;70.80
29363;DHT22;16349;53.672;10.014;2022-07-29T12:50:31;25.80;69.00
29363;DHT22;16349;53.672;10.014;2022-07-29T12:53:12;25.90;69.50
29363;DHT22;16349;53.672;10.014;2022-07-29T12:55:41;26.10;71.00
29363;DHT22;16349;53.672;10.014;2022-07-29T12:58:10;26.40;72.30
29363;DHT22;16349;53.672;10.014;2022-07-29T13:00:37;26.60;71.50
29363;DHT22;16349;53.672;10.014;2022-07-29T13:03:04;26.90;71.70
29363;DHT22;16349;53.672;10.014;2022-07-29T13:05:42;27.10;71.50
29363;DHT22;16349;53.672;10.014;2022-07-29T13:08:11;27.20;70.60
29363;DHT22;16349;53.672;10.014;2022-07-29T13:10:38;27.20;70.30
29363;DHT22;16349;53.672;10.014;2022-07-29T13:13:05;27.30;70.10
29363;DHT22;16349;53.672;10.014;2022-07-29T13:15:35;27.50;69.30
29363;DHT22;16349;53.672;10.014;2022-07-29T13:18:03;27.60;69.40
29363;DHT22;16349;53.672;10.014;2022-07-29T13:20:31;27.80;70.00
29363;DHT22;16349;53.672;10.014;2022-07-29T13:22:59;27.60;69.70
29363;DHT22;16349;53.672;10.014;2022-07-29T13:25:28;27.60;69.60
29363;DHT22;16349;53.672;10.014;2022-07-29T13:27:55;27.40;70.40
29363;DHT22;16349;53.672;10.014;2022-07-29T13:30:23;27.00;71.00
29363;DHT22;16349;53.672;10.014;2022-07-29T13:32:52;26.70;73.00
29363;DHT22;16349;53.672;10.014;2022-07-29T13:35:19;26.60;73.50
29363;DHT22;16349;53.672;10.014;2022-07-29T13:37:46;26.80;74.50
29363;DHT22;16349;53.672;10.014;2022-07-29T13:40:14;27.20;73.10
29363;DHT22;16349;53.672;10.014;2022-07-29T13:42:41;27.60;71.40
29363;DHT22;16349;53.672;10.014;2022-07-29T13:45:09;27.70;71.10
29363;DHT22;16349;53.672;10.014;2022-07-29T13:47:37;27.80;69.80
29363;DHT22;16349;53.672;10.014;2022-07-29T13:50:07;27.90;69.50
29363;DHT22;16349;53.672;10.014;2022-07-29T13:52:36;28.20;68.00
29363;DHT22;16349;53.672;10.014;2022-07-29T13:55:04;28.50;68.50
29363;DHT22;16349;53.672;10.014;2022-07-29T13:57:31;28.80;68.20
29363;DHT22;16349;53.672;10.014;2022-07-29T13:59:58;28.70;66.70
29363;DHT22;16349;53.672;10.014;2022-07-29T14:02:25;28.30;67.10
29363;DHT22;16349;53.672;10.014;2022-07-29T14:04:52;28.20;68.20
29363;DHT22;16349;53.672;10.014;2022-07-29T14:07:20;28.50;67.50
29363;DHT22;16349;53.672;10.014;2022-07-29T14:09:47;28.90;66.10
29363;DHT22;16349;53.672;10.014;2022-07-29T14:12:15;29.10;64.70
29363;DHT22;16349;53.672;10.014;2022-07-29T14:14:42;29.10;65.00
29363;DHT22;16349;53.672;10.014;2022-07-29T14:17:09;28.70;64.00
29363;DHT22;16349;53.672;10.014;2022-07-29T14:19:36;28.30;64.00
29363;DHT22;16349;53.672;10.014;2022-07-29T14:22:05;27.90;66.40
29363;DHT22;16349;53.672;10.014;2022-07-29T14:24:33;27.60;67.10
29363;DHT22;16349;53.672;10.014;2022-07-29T14:27:00;27.40;67.70
29363;DHT22;16349;53.672;10.014;2022-07-29T14:29:28;27.30;67.80
29363;DHT22;16349;53.672;10.014;2022-07-29T14:31:54;27.60;67.50
29363;DHT22;16349;53.672;10.014;2022-07-29T14:34:21;27.80;68.40
29363;DHT22;16349;53.672;10.014;2022-07-29T14:36:48;28.10;68.20
29363;DHT22;16349;53.672;10.014;2022-07-29T14:39:15;28.00;68.20
29363;DHT22;16349;53.672;10.014;2022-07-29T14:41:44;27.80;67.40
29363;DHT22;16349;53.672;10.014;2022-07-29T14:44:11;27.40;68.10
29363;DHT22;16349;53.672;10.014;2022-07-29T14:46:38;27.30;68.20
29363;DHT22;16349;53.672;10.014;2022-07-29T14:49:04;27.10;68.40
29363;DHT22;16349;53.672;10.014;2022-07-29T14:51:31;26.90;68.60
29363;DHT22;16349;53.672;10.014;2022-07-29T14:53:59;26.60;69.40
29363;DHT22;16349;53.672;10.014;2022-07-29T14:56:25;26.50;69.80
29363;DHT22;16349;53.672;10.014;2022-07-29T14:58:56;26.50;71.10
29363;DHT22;16349;53.672;10.014;2022-07-29T15:01:23;26.50;70.80
29363;DHT22;16349;53.672;10.014;2022-07-29T15:03:50;26.40;71.10
29363;DHT22;16349;53.672;10.014;2022-07-29T15:06:17;26.50;70.80
29363;DHT22;16349;53.672;10.014;2022-07-29T15:08:44;26.80;70.70
29363;DHT22;16349;53.672;10.014;2022-07-29T15:11:11;26.90;70.70
29363;DHT22;16349;53.672;10.014;2022-07-29T15:13:38;27.20;70.40
29363;DHT22;16349;53.672;10.014;2022-07-29T15:16:07;27.50;69.80
29363;DHT22;16349;53.672;10.014;2022-07-29T15:18:34;27.90;68.50
29363;DHT22;16349;53.672;10.014;2022-07-29T15:21:04;28.30;67.50
29363;DHT22;16349;53.672;10.014;2022-07-29T15:23:32;28.60;66.80
29363;DHT22;16349;53.672;10.014;2022-07-29T15:25:59;28.80;65.70
29363;DHT22;16349;53.672;10.014;2022-07-29T15:28:25;29.00;65.30